Time;durP1;ratioP1;P1;durP2;ratioP2;P2;SDS_P1;SDS_P2;PMS_P1;PMS_P2;Temp;Humidity;BMP_temperature;BMP_pressure;BME280_temperature;BME280_humidity;BME280_pressure;Samples;Min_cycle;Max_cycle;Signal;HPM_P1;HPM_P2
2024/04/14 00:01:21;;;;;;;;;3.00;2.00;;;;;;;;5494205;25;45169;-82
2024/04/14 00:03:56;;;;;;;;;3.00;3.00;;;;;;;;5507453;25;44517;-81
2024/04/14 00:06:22;;;;;;;;;1.67;1.67;;;;;;;;5496756;25;43992;-82
2024/04/14 00:08:48;;;;;;;;;2.00;2.00;;;;;;;;5515137;25;43990;-84
2024/04/14 00:11:13;;;;;;;;;2.00;2.00;;;;;;;;5516993;25;44882;-81
2024/04/14 00:13:38;;;;;;;;;2.00;2.00;;;;;;;;5510708;25;44102;-84
2024/04/14 00:16:04;;;;;;;;;2.00;1.00;;;;;;;;5515920;25;44366;-81
2024/04/14 00:18:30;;;;;;;;;2.00;2.00;;;;;;;;5503772;25;43994;-81
2024/04/14 00:20:55;;;;;;;;;1.00;1.00;;;;;;;;5508591;25;44355;-82
2024/04/14 00:23:21;;;;;;;;;1.00;1.00;;;;;;;;5509416;25;44919;-83
2024/04/14 00:25:47;;;;;;;;;3.00;1.00;;;;;;;;5511823;25;43848;-81
2024/04/14 00:28:12;;;;;;;;;1.00;1.00;;;;;;;;5503142;25;44461;-81
2024/04/14 00:30:37;;;;;;;;;1.00;1.00;;;;;;;;5517416;25;45658;-82
2024/04/14 00:33:03;;;;;;;;;1.67;1.33;;;;;;;;5505302;25;44167;-82
2024/04/14 00:35:29;;;;;;;;;1.00;1.00;;;;;;;;5525175;25;44080;-83
2024/04/14 00:37:54;;;;;;;;;1.00;1.00;;;;;;;;5526748;25;44275;-82
2024/04/14 00:40:20;;;;;;;;;2.00;2.00;;;;;;;;5517358;25;44079;-83
2024/04/14 00:42:45;;;;;;;;;1.00;1.00;;;;;;;;5516091;25;43844;-82
2024/04/14 00:45:10;;;;;;;;;1.33;1.33;;;;;;;;5503318;25;44378;-82
2024/04/14 00:47:36;;;;;;;;;1.00;1.00;;;;;;;;5508980;25;44200;-83
2024/04/14 00:50:02;;;;;;;;;1.00;1.00;;;;;;;;5513362;25;45203;-82
2024/04/14 00:52:27;;;;;;;;;0.33;0.33;;;;;;;;5517099;25;44598;-83
2024/04/14 00:54:53;;;;;;;;;2.00;1.00;;;;;;;;5508417;25;43956;-82
2024/04/14 00:57:18;;;;;;;;;1.33;1.00;;;;;;;;5519739;25;43705;-83
2024/04/14 00:59:45;;;;;;;;;1.00;1.00;;;;;;;;5507340;25;45848;-82
2024/04/14 01:02:10;;;;;;;;;1.00;1.00;;;;;;;;5513608;25;44898;-82
2024/04/14 01:04:36;;;;;;;;;1.00;1.00;;;;;;;;5501173;25;44530;-84
2024/04/14 01:07:01;;;;;;;;;0.00;0.00;;;;;;;;5508156;25;44004;-83
2024/04/14 01:09:26;;;;;;;;;0.00;0.00;;;;;;;;5517228;25;44927;-80
2024/04/14 01:11:51;;;;;;;;;1.00;1.00;;;;;;;;5510879;25;44568;-79
2024/04/14 01:14:17;;;;;;;;;1.00;1.00;;;;;;;;5511834;25;44450;-82
2024/04/14 01:16:49;;;;;;;;;3.00;1.00;;;;;;;;5518891;25;44861;-82
2024/04/14 01:19:14;;;;;;;;;1.00;1.00;;;;;;;;5510941;25;45787;-82
2024/04/14 01:21:39;;;;;;;;;1.33;0.67;;;;;;;;5516903;25;44451;-82
2024/04/14 01:24:07;;;;;;;;;1.00;1.00;;;;;;;;5510427;25;43907;-83
2024/04/14 01:26:32;;;;;;;;;1.33;1.00;;;;;;;;5500897;25;44155;-83
2024/04/14 01:28:58;;;;;;;;;1.67;0.00;;;;;;;;5499677;25;45209;-82
2024/04/14 01:31:23;;;;;;;;;2.00;0.67;;;;;;;;5513653;25;43987;-82
2024/04/14 01:33:50;;;;;;;;;0.67;0.67;;;;;;;;5497570;25;44417;-82
2024/04/14 01:36:15;;;;;;;;;0.00;0.00;;;;;;;;5515703;25;44892;-82
2024/04/14 01:38:40;;;;;;;;;1.00;1.00;;;;;;;;5503689;25;44566;-82
2024/04/14 01:41:05;;;;;;;;;1.00;1.00;;;;;;;;5508163;25;44527;-83
2024/04/14 01:43:31;;;;;;;;;1.00;1.00;;;;;;;;5496590;25;44061;-82
2024/04/14 01:45:56;;;;;;;;;1.33;0.67;;;;;;;;5507251;25;45842;-83
2024/04/14 01:48:22;;;;;;;;;1.00;1.00;;;;;;;;5501572;25;44837;-82
2024/04/14 01:50:50;;;;;;;;;1.00;1.00;;;;;;;;5495843;25;44031;-82
2024/04/14 01:53:16;;;;;;;;;1.00;1.00;;;;;;;;5503042;25;43822;-83
2024/04/14 01:55:43;;;;;;;;;1.00;1.00;;;;;;;;5483391;25;43901;-82
2024/04/14 01:58:08;;;;;;;;;1.00;1.00;;;;;;;;5496436;25;45829;-84
2024/04/14 02:00:34;;;;;;;;;0.33;0.33;;;;;;;;5510203;25;44038;-82
2024/04/14 02:03:00;;;;;;;;;0.67;0.67;;;;;;;;5493886;25;44419;-82
2024/04/14 02:05:25;;;;;;;;;0.33;0.33;;;;;;;;5494405;25;44938;-82
2024/04/14 02:07:52;;;;;;;;;1.00;1.00;;;;;;;;5493633;25;45992;-82
2024/04/14 02:10:18;;;;;;;;;1.00;1.00;;;;;;;;5495602;25;43855;-81
2024/04/14 02:12:44;;;;;;;;;2.00;2.00;;;;;;;;5505387;25;44018;-83
2024/04/14 02:15:09;;;;;;;;;0.00;0.00;;;;;;;;5493134;25;45019;-81
2024/04/14 02:17:35;;;;;;;;;3.00;1.00;;;;;;;;5508612;25;43893;-84
2024/04/14 02:20:00;;;;;;;;;1.00;1.00;;;;;;;;5496427;25;44005;-82
2024/04/14 02:22:26;;;;;;;;;1.00;0.00;;;;;;;;5521974;25;44094;-82
2024/04/14 02:24:51;;;;;;;;;0.00;0.00;;;;;;;;5517971;25;45681;-82
2024/04/14 02:27:16;;;;;;;;;0.33;0.33;;;;;;;;5521000;25;44203;-81
2024/04/14 02:29:41;;;;;;;;;3.33;3.33;;;;;;;;5502341;25;43991;-82
2024/04/14 02:32:07;;;;;;;;;0.67;0.67;;;;;;;;5510964;25;43836;-83
2024/04/14 02:34:32;;;;;;;;;1.00;1.00;;;;;;;;5502805;25;44182;-82
2024/04/14 02:36:57;;;;;;;;;1.00;1.00;;;;;;;;5513171;25;44209;-82
2024/04/14 02:39:23;;;;;;;;;2.33;1.00;;;;;;;;5518477;25;44510;-82
2024/04/14 02:41:49;;;;;;;;;0.67;0.00;;;;;;;;5516829;25;44553;-83
2024/04/14 02:44:16;;;;;;;;;2.33;1.33;;;;;;;;5516746;25;44013;-82
2024/04/14 02:46:42;;;;;;;;;1.00;1.00;;;;;;;;5508110;25;46610;-81
2024/04/14 02:49:07;;;;;;;;;2.33;1.00;;;;;;;;5506610;25;44464;-80
2024/04/14 02:51:34;;;;;;;;;5.33;5.33;;;;;;;;5516589;25;44573;-82
2024/04/14 02:53:59;;;;;;;;;1.00;1.00;;;;;;;;5509311;25;45121;-81
2024/04/14 02:56:24;;;;;;;;;1.00;0.00;;;;;;;;5495328;25;43941;-82
2024/04/14 02:58:50;;;;;;;;;3.00;1.00;;;;;;;;5502372;25;43828;-83
2024/04/14 03:01:17;;;;;;;;;1.00;1.00;;;;;;;;5516909;25;44656;-81
2024/04/14 03:03:43;;;;;;;;;2.00;1.33;;;;;;;;5505337;25;44106;-83
2024/04/14 03:06:09;;;;;;;;;2.33;2.33;;;;;;;;5501797;25;46107;-83
2024/04/14 03:08:34;;;;;;;;;2.00;1.00;;;;;;;;5512466;25;43897;-81
2024/04/14 03:11:00;;;;;;;;;0.33;0.33;;;;;;;;5511734;25;44479;-81
2024/04/14 03:13:26;;;;;;;;;1.67;1.67;;;;;;;;5514233;25;43867;-82
2024/04/14 03:15:51;;;;;;;;;1.00;1.00;;;;;;;;5509199;25;45517;-82
2024/04/14 03:18:16;;;;;;;;;1.00;1.00;;;;;;;;5508008;25;44309;-81
2024/04/14 03:20:42;;;;;;;;;2.33;1.00;;;;;;;;5511399;25;44158;-82
2024/04/14 03:23:08;;;;;;;;;2.00;1.67;;;;;;;;5517389;25;44073;-81
2024/04/14 03:25:33;;;;;;;;;1.00;1.00;;;;;;;;5499515;25;46735;-81
2024/04/14 03:27:58;;;;;;;;;1.00;1.00;;;;;;;;5514592;25;43888;-81
2024/04/14 03:30:24;;;;;;;;;1.00;1.00;;;;;;;;5518767;25;44166;-79
2024/04/14 03:32:49;;;;;;;;;5.00;1.00;;;;;;;;5520781;25;44404;-80
2024/04/14 03:35:14;;;;;;;;;2.00;2.00;;;;;;;;5520089;25;45981;-82
2024/04/14 03:37:40;;;;;;;;;1.67;1.00;;;;;;;;5511948;25;45222;-81
2024/04/14 03:40:05;;;;;;;;;0.00;0.00;;;;;;;;5495571;25;43967;-80
2024/04/14 03:42:34;;;;;;;;;0.00;0.00;;;;;;;;5498019;25;44094;-80
2024/04/14 03:45:02;;;;;;;;;2.00;2.00;;;;;;;;5528344;25;44476;-83
2024/04/14 03:47:27;;;;;;;;;2.00;2.00;;;;;;;;5510874;25;45086;-84
2024/04/14 03:49:52;;;;;;;;;2.00;2.00;;;;;;;;5503356;25;44415;-81
2024/04/14 03:52:18;;;;;;;;;2.00;2.00;;;;;;;;5499937;25;44776;-82
2024/04/14 03:54:43;;;;;;;;;1.00;1.00;;;;;;;;5501802;25;45565;-83
2024/04/14 03:57:08;;;;;;;;;3.67;2.00;;;;;;;;5489601;25;44490;-81
2024/04/14 03:59:33;;;;;;;;;2.00;2.00;;;;;;;;5512595;25;44614;-81
2024/04/14 04:01:59;;;;;;;;;5.00;3.00;;;;;;;;5486878;25;44772;-80
2024/04/14 04:04:24;;;;;;;;;2.00;1.00;;;;;;;;5493947;25;45650;-81
2024/04/14 04:06:49;;;;;;;;;4.67;2.00;;;;;;;;5499131;25;44317;-79
2024/04/14 04:09:14;;;;;;;;;6.00;3.33;;;;;;;;5508697;25;43938;-81
2024/04/14 04:11:40;;;;;;;;;3.00;2.33;;;;;;;;5490335;25;45783;-79
2024/04/14 04:14:05;;;;;;;;;2.33;2.33;;;;;;;;5496440;25;45802;-83
2024/04/14 04:16:30;;;;;;;;;7.67;4.00;;;;;;;;5503868;25;43998;-80
2024/04/14 04:18:56;;;;;;;;;4.33;3.00;;;;;;;;5499268;25;44379;-82
2024/04/14 04:21:21;;;;;;;;;3.00;3.00;;;;;;;;5507819;25;44714;-80
2024/04/14 04:23:50;;;;;;;;;6.00;4.00;;;;;;;;5528288;25;44869;-82
2024/04/14 04:26:16;;;;;;;;;3.00;3.00;;;;;;;;5532274;25;43962;-80
2024/04/14 04:28:44;;;;;;;;;6.00;5.67;;;;;;;;5530924;25;43918;-82
2024/04/14 04:31:11;;;;;;;;;3.67;2.67;;;;;;;;5526848;25;44855;-83
2024/04/14 04:33:39;;;;;;;;;5.67;4.00;;;;;;;;5515701;25;46864;-81
2024/04/14 04:36:04;;;;;;;;;9.33;4.00;;;;;;;;5501077;25;43967;-83
2024/04/14 04:38:30;;;;;;;;;23.00;22.00;;;;;;;;5514350;25;43920;-81
2024/04/14 04:40:55;;;;;;;;;3.33;3.33;;;;;;;;5485624;25;44726;-81
2024/04/14 04:43:22;;;;;;;;;3.00;3.00;;;;;;;;5497243;25;44227;-81
2024/04/14 04:45:48;;;;;;;;;4.00;4.00;;;;;;;;5494055;25;43987;-82
2024/04/14 04:48:14;;;;;;;;;15.67;14.00;;;;;;;;5495692;25;44166;-81
2024/04/14 04:50:39;;;;;;;;;5.00;4.00;;;;;;;;5494770;25;43903;-82
2024/04/14 04:53:04;;;;;;;;;4.33;4.00;;;;;;;;5499636;25;44670;-83
2024/04/14 04:55:30;;;;;;;;;8.33;3.33;;;;;;;;5506740;25;43976;-80
2024/04/14 04:57:55;;;;;;;;;2.67;2.67;;;;;;;;5514521;25;44300;-82
2024/04/14 05:00:20;;;;;;;;;3.67;3.67;;;;;;;;5493490;25;44158;-82
2024/04/14 05:02:48;;;;;;;;;7.00;7.00;;;;;;;;5481021;25;45191;-86
2024/04/14 05:05:15;;;;;;;;;6.00;6.00;;;;;;;;5493591;25;43901;-81
2024/04/14 05:07:40;;;;;;;;;8.00;4.00;;;;;;;;5495247;25;44095;-82
2024/04/14 05:10:06;;;;;;;;;6.33;6.33;;;;;;;;5479565;25;44929;-84
2024/04/14 05:12:34;;;;;;;;;5.00;5.00;;;;;;;;5480874;25;46298;-82
2024/04/14 05:15:04;;;;;;;;;5.00;5.00;;;;;;;;5517660;25;43800;-83
2024/04/14 05:17:29;;;;;;;;;5.67;5.67;;;;;;;;5496707;25;43848;-79
2024/04/14 05:19:56;;;;;;;;;10.67;8.67;;;;;;;;5480244;25;45959;-80
2024/04/14 05:22:22;;;;;;;;;4.00;3.00;;;;;;;;5501718;25;44405;-81
2024/04/14 05:24:47;;;;;;;;;9.33;4.67;;;;;;;;5490542;25;44037;-81
2024/04/14 05:27:13;;;;;;;;;5.67;4.00;;;;;;;;5517160;25;44172;-80
2024/04/14 05:29:40;;;;;;;;;4.00;2.67;;;;;;;;5498736;25;44489;-80
2024/04/14 05:32:05;;;;;;;;;5.00;3.67;;;;;;;;5512622;25;44212;-81
2024/04/14 05:34:31;;;;;;;;;5.00;4.00;;;;;;;;5514096;25;43919;-82
2024/04/14 05:36:56;;;;;;;;;3.67;3.67;;;;;;;;5515197;25;43906;-79
2024/04/14 05:39:21;;;;;;;;;4.67;4.67;;;;;;;;5483998;25;44486;-80
2024/04/14 05:41:47;;;;;;;;;3.67;3.67;;;;;;;;5488709;25;45320;-81
2024/04/14 05:44:12;;;;;;;;;4.00;4.00;;;;;;;;5504642;25;43837;-80
2024/04/14 05:46:39;;;;;;;;;3.00;3.00;;;;;;;;5499507;25;44412;-80
2024/04/14 05:49:04;;;;;;;;;5.67;4.00;;;;;;;;5507376;25;44254;-85
2024/04/14 05:51:33;;;;;;;;;35.33;33.00;;;;;;;;5491576;25;45662;-85
2024/04/14 05:54:18;;;;;;;;;7.67;7.67;;;;;;;;5492892;25;43959;-79
2024/04/14 05:59:46;;;;;;;;;7.00;5.00;;;;;;;;5462863;25;44348;-73
2024/04/14 06:02:12;;;;;;;;;7.67;6.00;;;;;;;;5497359;25;46940;-72
2024/04/14 06:04:37;;;;;;;;;6.00;4.67;;;;;;;;5477527;25;43944;-73
2024/04/14 06:07:02;;;;;;;;;8.00;6.00;;;;;;;;5476681;25;43837;-74
2024/04/14 06:09:28;;;;;;;;;5.67;5.00;;;;;;;;5486586;25;44185;-74
2024/04/14 06:11:53;;;;;;;;;83.25;71.00;;;;;;;;5471363;25;44578;-72
2024/04/14 06:14:18;;;;;;;;;6.33;6.33;;;;;;;;5478944;25;44417;-73
2024/04/14 06:16:44;;;;;;;;;8.00;6.00;;;;;;;;5483615;25;43965;-78
2024/04/14 06:19:09;;;;;;;;;6.00;6.00;;;;;;;;5484184;25;44427;-78
2024/04/14 06:21:34;;;;;;;;;7.00;7.00;;;;;;;;5479593;25;45148;-73
2024/04/14 06:23:59;;;;;;;;;9.67;8.00;;;;;;;;5482160;25;44558;-73
2024/04/14 06:26:25;;;;;;;;;7.67;5.67;;;;;;;;5483870;25;43926;-72
2024/04/14 06:28:51;;;;;;;;;6.33;6.33;;;;;;;;5481676;25;44363;-71
2024/04/14 06:31:16;;;;;;;;;7.00;4.67;;;;;;;;5490693;25;45835;-73
2024/04/14 06:33:41;;;;;;;;;9.67;8.33;;;;;;;;5489422;25;43765;-72
2024/04/14 06:36:07;;;;;;;;;12.33;11.00;;;;;;;;5480268;25;44423;-74
2024/04/14 06:38:33;;;;;;;;;10.33;8.00;;;;;;;;5487018;25;44398;-72
2024/04/14 06:40:58;;;;;;;;;14.00;9.67;;;;;;;;5487188;25;44295;-74
2024/04/14 06:43:23;;;;;;;;;15.33;13.67;;;;;;;;5480695;25;43946;-73
2024/04/14 06:45:54;;;;;;;;;16.33;15.00;;;;;;;;5486229;25;44089;-80
2024/04/14 06:48:20;;;;;;;;;36.67;33.33;;;;;;;;5477192;25;45009;-74
2024/04/14 06:50:45;;;;;;;;;31.00;29.33;;;;;;;;5488240;25;43946;-74
2024/04/14 06:53:12;;;;;;;;;12.67;11.67;;;;;;;;5483955;25;43946;-74
2024/04/14 06:55:37;;;;;;;;;16.33;11.67;;;;;;;;5473964;25;44669;-73
2024/04/14 06:58:02;;;;;;;;;9.67;5.00;;;;;;;;5479195;25;45021;-74
2024/04/14 07:00:27;;;;;;;;;10.67;8.00;;;;;;;;5478680;25;46153;-73
2024/04/14 07:02:53;;;;;;;;;18.67;12.00;;;;;;;;5482530;25;44427;-73
2024/04/14 07:05:18;;;;;;;;;9.00;7.00;;;;;;;;5474155;25;44201;-73
2024/04/14 07:07:43;;;;;;;;;5.00;5.00;;;;;;;;5474808;25;45391;-75
2024/04/14 07:10:08;;;;;;;;;11.33;7.67;;;;;;;;5456745;25;44615;-72
2024/04/14 07:12:34;;;;;;;;;8.33;8.33;;;;;;;;5472293;25;44053;-74
2024/04/14 07:14:59;;;;;;;;;9.00;8.00;;;;;;;;5483600;25;43991;-74
2024/04/14 07:17:25;;;;;;;;;9.00;6.67;;;;;;;;5489558;25;44502;-75
2024/04/14 07:19:50;;;;;;;;;7.00;7.00;;;;;;;;5483484;25;44348;-74
2024/04/14 07:22:15;;;;;;;;;10.33;6.00;;;;;;;;5494247;25;44463;-75
2024/04/14 07:24:40;;;;;;;;;12.00;8.33;;;;;;;;5489042;25;44266;-74
2024/04/14 07:27:06;;;;;;;;;6.33;5.00;;;;;;;;5473829;25;44664;-75
2024/04/14 07:29:32;;;;;;;;;6.33;6.33;;;;;;;;5475337;25;45457;-75
2024/04/14 07:31:57;;;;;;;;;7.67;4.00;;;;;;;;5485935;25;45204;-75
2024/04/14 07:34:23;;;;;;;;;7.00;4.33;;;;;;;;5488163;25;44030;-75
2024/04/14 07:36:48;;;;;;;;;8.67;5.67;;;;;;;;5473595;25;44482;-74
2024/04/14 07:39:14;;;;;;;;;6.33;5.67;;;;;;;;5488274;25;44862;-76
2024/04/14 07:41:39;;;;;;;;;4.33;4.00;;;;;;;;5474233;25;44297;-75
2024/04/14 07:44:04;;;;;;;;;6.33;5.33;;;;;;;;5471313;25;44249;-75
2024/04/14 07:46:30;;;;;;;;;5.33;4.33;;;;;;;;5482792;25;43940;-73
2024/04/14 07:48:56;;;;;;;;;5.67;5.67;;;;;;;;5484479;25;44620;-76
2024/04/14 07:51:21;;;;;;;;;5.33;4.33;;;;;;;;5471158;25;44333;-75
2024/04/14 07:53:47;;;;;;;;;5.00;5.00;;;;;;;;5489266;25;44274;-75
2024/04/14 07:56:12;;;;;;;;;3.67;3.67;;;;;;;;5481784;25;43922;-76
2024/04/14 07:58:37;;;;;;;;;8.00;5.67;;;;;;;;5483737;25;44687;-75
2024/04/14 08:01:04;;;;;;;;;7.00;5.00;;;;;;;;5477138;25;44439;-75
2024/04/14 08:03:29;;;;;;;;;5.67;5.00;;;;;;;;5487046;25;44177;-76
2024/04/14 08:05:54;;;;;;;;;4.00;4.00;;;;;;;;5474377;25;44837;-75
2024/04/14 08:08:20;;;;;;;;;3.67;3.67;;;;;;;;5490287;25;45926;-75
2024/04/14 08:10:45;;;;;;;;;4.00;3.00;;;;;;;;5471650;25;44489;-75
2024/04/14 08:13:10;;;;;;;;;6.67;4.00;;;;;;;;5482237;25;43843;-74
2024/04/14 08:15:35;;;;;;;;;4.33;4.33;;;;;;;;5471383;25;44324;-74
2024/04/14 08:18:01;;;;;;;;;5.00;4.67;;;;;;;;5479899;25;44046;-80
2024/04/14 08:20:26;;;;;;;;;4.00;4.00;;;;;;;;5469602;25;44833;-81
2024/04/14 08:22:52;;;;;;;;;3.00;3.00;;;;;;;;5491581;25;44118;-81
2024/04/14 08:25:17;;;;;;;;;2.33;2.33;;;;;;;;5478925;25;44324;-73
2024/04/14 08:27:42;;;;;;;;;2.33;2.33;;;;;;;;5486617;25;44034;-73
2024/04/14 08:30:07;;;;;;;;;4.33;4.33;;;;;;;;5497593;25;43844;-77
2024/04/14 08:32:33;;;;;;;;;2.67;1.33;;;;;;;;5478490;25;44413;-72
2024/04/14 08:34:59;;;;;;;;;1.50;1.00;;;;;;;;5499020;25;44855;-73
2024/04/14 08:37:24;;;;;;;;;2.67;1.00;;;;;;;;5504989;25;46025;-72
2024/04/14 08:39:50;;;;;;;;;3.00;2.00;;;;;;;;5491246;25;44308;-72
2024/04/14 08:42:17;;;;;;;;;1.00;1.00;;;;;;;;5488939;25;44408;-71
2024/04/14 08:44:44;;;;;;;;;1.33;1.33;;;;;;;;5487426;25;44395;-73
2024/04/14 08:47:10;;;;;;;;;1.00;1.00;;;;;;;;5498534;25;44553;-73
2024/04/14 08:49:36;;;;;;;;;1.00;1.00;;;;;;;;5498561;25;44134;-73
2024/04/14 08:52:03;;;;;;;;;1.00;1.00;;;;;;;;5497713;25;44289;-72
2024/04/14 08:54:28;;;;;;;;;4.67;3.33;;;;;;;;5478665;25;44909;-73
2024/04/14 08:57:00;;;;;;;;;2.00;2.00;;;;;;;;5484413;25;45776;-71
2024/04/14 08:59:25;;;;;;;;;2.00;0.75;;;;;;;;5486976;25;44024;-71
2024/04/14 09:01:51;;;;;;;;;1.00;1.00;;;;;;;;5491447;25;44423;-72
2024/04/14 09:04:16;;;;;;;;;3.00;1.50;;;;;;;;5495918;25;44325;-72
2024/04/14 09:06:45;;;;;;;;;2.50;2.50;;;;;;;;5500845;25;45670;-71
2024/04/14 09:09:11;;;;;;;;;2.00;2.00;;;;;;;;5496346;25;44385;-71
2024/04/14 09:11:37;;;;;;;;;1.00;1.00;;;;;;;;5491061;25;44382;-77
2024/04/14 09:14:02;;;;;;;;;3.75;1.50;;;;;;;;5494351;25;44084;-72
2024/04/14 09:16:27;;;;;;;;;1.00;1.00;;;;;;;;5496350;25;47257;-73
2024/04/14 09:18:53;;;;;;;;;4.00;2.75;;;;;;;;5492449;25;44358;-72
2024/04/14 09:21:18;;;;;;;;;7.50;4.50;;;;;;;;5497487;25;44347;-73
2024/04/14 09:23:43;;;;;;;;;1.00;1.00;;;;;;;;5508270;25;43981;-72
2024/04/14 09:26:09;;;;;;;;;2.00;2.00;;;;;;;;5489422;25;43969;-78
2024/04/14 09:28:34;;;;;;;;;2.75;2.00;;;;;;;;5469377;25;44082;-77
2024/04/14 09:31:00;;;;;;;;;2.50;2.00;;;;;;;;5501166;25;44416;-77
2024/04/14 09:33:25;;;;;;;;;2.00;2.00;;;;;;;;5495772;25;43970;-76
2024/04/14 09:35:51;;;;;;;;;2.00;2.00;;;;;;;;5516372;25;44390;-79
2024/04/14 09:38:17;;;;;;;;;3.25;3.25;;;;;;;;5483987;25;44505;-78
2024/04/14 09:40:42;;;;;;;;;2.25;2.25;;;;;;;;5485240;25;44040;-79
2024/04/14 09:43:09;;;;;;;;;2.75;2.25;;;;;;;;5472937;25;44339;-76
2024/04/14 09:45:34;;;;;;;;;6.75;5.00;;;;;;;;5485053;25;45204;-76
2024/04/14 09:48:01;;;;;;;;;2.00;2.00;;;;;;;;5500758;25;43950;-76
2024/04/14 09:50:28;;;;;;;;;1.25;1.00;;;;;;;;5488136;25;44667;-76
2024/04/14 09:52:56;;;;;;;;;3.25;3.25;;;;;;;;5490035;25;45611;-78
2024/04/14 09:55:21;;;;;;;;;3.75;2.00;;;;;;;;5494890;25;44451;-76
2024/04/14 09:57:48;;;;;;;;;3.25;3.00;;;;;;;;5481225;25;43916;-71
2024/04/14 10:00:14;;;;;;;;;3.00;2.25;;;;;;;;5480258;25;44277;-72
2024/04/14 10:03:01;;;;;;;;;3.00;3.00;;;;;;;;5476537;25;44427;-78
2024/04/14 10:05:27;;;;;;;;;2.00;2.00;;;;;;;;5496978;25;46428;-75
2024/04/14 10:07:52;;;;;;;;;3.00;2.00;;;;;;;;5477415;25;44541;-77
2024/04/14 10:10:19;;;;;;;;;2.00;2.00;;;;;;;;5491020;25;44585;-76
2024/04/14 10:12:44;;;;;;;;;2.25;2.25;;;;;;;;5490356;25;43967;-79
2024/04/14 10:15:13;;;;;;;;;3.25;2.00;;;;;;;;5512834;25;45635;-77
2024/04/14 10:17:38;;;;;;;;;1.00;1.00;;;;;;;;5508348;25;44011;-78
2024/04/14 10:20:07;;;;;;;;;2.25;2.25;;;;;;;;5465641;25;43845;-78
2024/04/14 10:22:42;;;;;;;;;3.50;1.00;;;;;;;;5479133;25;44552;-77
2024/04/14 10:25:17;;;;;;;;;0.00;0.00;;;;;;;;5513670;25;44011;-77
2024/04/14 10:27:42;;;;;;;;;2.50;1.00;;;;;;;;5504437;25;43883;-78
2024/04/14 10:30:12;;;;;;;;;0.00;0.00;;;;;;;;5521662;25;44309;-76
2024/04/14 10:32:37;;;;;;;;;0.00;0.00;;;;;;;;5499978;25;44053;-77
2024/04/14 10:35:24;;;;;;;;;0.75;0.75;;;;;;;;5494176;25;45667;-77
2024/04/14 10:38:03;;;;;;;;;0.40;0.40;;;;;;;;5509365;25;44079;-72
2024/04/14 10:40:53;;;;;;;;;1.00;1.00;;;;;;;;5514871;25;44417;-74
2024/04/14 10:43:24;;;;;;;;;1.00;1.00;;;;;;;;5494236;25;45005;-79
2024/04/14 10:45:50;;;;;;;;;0.50;0.00;;;;;;;;5513546;25;44271;-76
2024/04/14 10:48:16;;;;;;;;;1.00;1.00;;;;;;;;5496305;25;44056;-78
2024/04/14 10:50:47;;;;;;;;;0.75;0.75;;;;;;;;5514683;25;44024;-77
2024/04/14 10:53:13;;;;;;;;;0.50;0.50;;;;;;;;5497006;25;44540;-77
2024/04/14 10:55:39;;;;;;;;;1.75;1.75;;;;;;;;5518207;25;44916;-78
2024/04/14 10:58:26;;;;;;;;;1.60;1.60;;;;;;;;5520938;25;44684;-76
2024/04/14 11:00:50;;;;;;;;;1.50;1.50;;;;;;;;5488418;25;44716;-76
2024/04/14 11:03:15;;;;;;;;;1.00;1.00;;;;;;;;5494899;25;44055;-78
2024/04/14 11:05:41;;;;;;;;;1.00;1.00;;;;;;;;5519501;25;44886;-77
2024/04/14 11:08:11;;;;;;;;;1.00;1.00;;;;;;;;5464727;25;44025;-77
2024/04/14 11:10:36;;;;;;;;;0.00;0.00;;;;;;;;5477018;25;44035;-76
2024/04/14 11:13:01;;;;;;;;;0.00;0.00;;;;;;;;5490814;25;44262;-77
2024/04/14 11:15:27;;;;;;;;;2.75;0.25;;;;;;;;5507984;25;45002;-77
2024/04/14 11:17:55;;;;;;;;;3.00;2.00;;;;;;;;5490207;25;44153;-75
2024/04/14 11:20:21;;;;;;;;;2.75;2.75;;;;;;;;5480546;25;44326;-77
2024/04/14 11:22:46;;;;;;;;;2.00;2.00;;;;;;;;5491607;25;44555;-77
2024/04/14 11:25:12;;;;;;;;;4.75;3.00;;;;;;;;5487487;25;44023;-77
2024/04/14 11:27:37;;;;;;;;;3.25;1.75;;;;;;;;5480632;25;44006;-78
2024/04/14 11:30:03;;;;;;;;;6.00;3.75;;;;;;;;5491870;25;43959;-78
2024/04/14 11:32:33;;;;;;;;;1.25;1.25;;;;;;;;5489497;25;44038;-78
2024/04/14 11:35:02;;;;;;;;;0.75;0.75;;;;;;;;5493263;25;44096;-78
2024/04/14 11:37:28;;;;;;;;;2.00;1.50;;;;;;;;5494233;25;44491;-78
2024/04/14 11:39:56;;;;;;;;;3.75;2.75;;;;;;;;5526365;25;43975;-78
2024/04/14 11:42:21;;;;;;;;;3.25;3.25;;;;;;;;5515165;25;44698;-75
2024/04/14 11:44:46;;;;;;;;;3.00;2.00;;;;;;;;5522275;25;44637;-72
2024/04/14 11:47:12;;;;;;;;;2.75;1.50;;;;;;;;5494849;25;43999;-72
2024/04/14 11:49:37;;;;;;;;;1.75;1.75;;;;;;;;5491544;25;44453;-71
2024/04/14 11:52:02;;;;;;;;;2.00;2.00;;;;;;;;5510623;25;44131;-73
2024/04/14 11:54:27;;;;;;;;;1.75;0.50;;;;;;;;5520351;25;44951;-72
2024/04/14 11:56:53;;;;;;;;;0.50;0.50;;;;;;;;5500424;25;43956;-73
2024/04/14 11:59:19;;;;;;;;;2.00;1.00;;;;;;;;5492136;25;44333;-72
2024/04/14 12:01:45;;;;;;;;;4.00;3.50;;;;;;;;5492024;25;44341;-74
2024/04/14 12:04:10;;;;;;;;;1.50;1.00;;;;;;;;5492016;25;44784;-73
2024/04/14 12:06:35;;;;;;;;;5.50;5.00;;;;;;;;5493529;25;44074;-71
2024/04/14 12:09:00;;;;;;;;;2.00;2.00;;;;;;;;5506440;25;43929;-73
2024/04/14 12:11:26;;;;;;;;;1.75;1.00;;;;;;;;5499946;25;44881;-72
2024/04/14 12:13:51;;;;;;;;;4.00;2.75;;;;;;;;5512451;25;45685;-73
2024/04/14 12:16:16;;;;;;;;;2.25;1.50;;;;;;;;5495451;25;44586;-72
2024/04/14 12:18:41;;;;;;;;;2.00;1.00;;;;;;;;5493666;25;44570;-73
2024/04/14 12:21:07;;;;;;;;;1.00;1.00;;;;;;;;5494729;25;43938;-74
2024/04/14 12:23:32;;;;;;;;;1.75;1.25;;;;;;;;5515716;25;46558;-74
2024/04/14 12:25:57;;;;;;;;;1.75;1.75;;;;;;;;5509560;25;44456;-73
2024/04/14 12:28:23;;;;;;;;;1.75;1.75;;;;;;;;5518367;25;44466;-73
2024/04/14 12:30:48;;;;;;;;;2.50;1.00;;;;;;;;5498261;25;44344;-74
2024/04/14 12:33:13;;;;;;;;;1.00;1.00;;;;;;;;5481440;25;44366;-72
2024/04/14 12:35:41;;;;;;;;;0.50;0.50;;;;;;;;5482000;25;44577;-73
2024/04/14 12:38:06;;;;;;;;;1.50;1.50;;;;;;;;5498802;25;44386;-72
2024/04/14 12:40:31;;;;;;;;;0.00;0.00;;;;;;;;5497069;25;43926;-73
2024/04/14 12:42:57;;;;;;;;;3.00;3.00;;;;;;;;5517780;25;43807;-73
2024/04/14 12:45:22;;;;;;;;;2.00;2.00;;;;;;;;5486239;25;44445;-72
2024/04/14 12:47:48;;;;;;;;;1.00;1.00;;;;;;;;5467643;25;44381;-73
2024/04/14 12:50:14;;;;;;;;;3.25;1.50;;;;;;;;5466414;25;44297;-73
2024/04/14 12:52:39;;;;;;;;;1.25;1.25;;;;;;;;5490383;25;44429;-73
2024/04/14 12:55:04;;;;;;;;;2.00;1.00;;;;;;;;5478694;25;43997;-73
2024/04/14 12:57:30;;;;;;;;;3.25;2.00;;;;;;;;5487565;25;45390;-72
2024/04/14 12:59:55;;;;;;;;;1.25;1.25;;;;;;;;5503760;25;44489;-74
2024/04/14 13:02:20;;;;;;;;;3.00;2.75;;;;;;;;5489618;25;44413;-74
2024/04/14 13:04:46;;;;;;;;;7.75;4.50;;;;;;;;5477950;25;44447;-73
2024/04/14 13:07:11;;;;;;;;;2.50;1.50;;;;;;;;5499711;25;44368;-74
2024/04/14 13:09:36;;;;;;;;;1.50;1.50;;;;;;;;5479718;25;44224;-72
2024/04/14 13:12:02;;;;;;;;;2.00;2.00;;;;;;;;5492241;25;44027;-75
2024/04/14 13:14:27;;;;;;;;;2.25;1.25;;;;;;;;5473495;25;43861;-73
2024/04/14 13:16:52;;;;;;;;;5.00;2.00;;;;;;;;5501994;25;43837;-74
2024/04/14 13:19:17;;;;;;;;;2.50;2.00;;;;;;;;5494463;25;44016;-74
2024/04/14 13:21:43;;;;;;;;;1.00;1.00;;;;;;;;5473749;25;43977;-72
2024/04/14 13:24:08;;;;;;;;;4.50;2.75;;;;;;;;5458491;25;44371;-76
2024/04/14 13:26:34;;;;;;;;;5.00;1.00;;;;;;;;5464331;25;44642;-76
2024/04/14 13:28:59;;;;;;;;;1.50;1.50;;;;;;;;5479938;25;45364;-78
2024/04/14 13:31:24;;;;;;;;;1.00;1.00;;;;;;;;5462972;25;46076;-77
2024/04/14 13:33:49;;;;;;;;;4.50;3.25;;;;;;;;5476474;25;44366;-77
2024/04/14 13:36:15;;;;;;;;;2.00;1.00;;;;;;;;5488508;25;44362;-75
2024/04/14 13:38:40;;;;;;;;;3.25;2.25;;;;;;;;5472623;25;44874;-75
2024/04/14 13:41:07;;;;;;;;;2.25;2.00;;;;;;;;5470722;25;44640;-75
2024/04/14 13:43:32;;;;;;;;;2.25;2.25;;;;;;;;5462336;25;44399;-76
2024/04/14 13:45:57;;;;;;;;;2.00;1.50;;;;;;;;5469243;25;43969;-75
2024/04/14 13:48:23;;;;;;;;;1.25;1.25;;;;;;;;5484778;25;44596;-76
2024/04/14 13:50:48;;;;;;;;;1.50;1.00;;;;;;;;5508395;25;44432;-77
2024/04/14 13:53:13;;;;;;;;;1.00;1.00;;;;;;;;5478672;25;43947;-79
2024/04/14 13:55:39;;;;;;;;;1.00;1.00;;;;;;;;5504355;25;44392;-76
2024/04/14 13:58:04;;;;;;;;;3.50;3.50;;;;;;;;5464542;25;44284;-78
2024/04/14 14:00:29;;;;;;;;;1.75;1.75;;;;;;;;5517202;25;45840;-76
2024/04/14 14:02:55;;;;;;;;;3.75;3.75;;;;;;;;5509863;25;44612;-79
2024/04/14 14:05:20;;;;;;;;;3.00;1.00;;;;;;;;5493686;25;44017;-77
2024/04/14 14:07:46;;;;;;;;;6.50;4.75;;;;;;;;5510806;25;44457;-76
2024/04/14 14:10:11;;;;;;;;;2.25;2.25;;;;;;;;5484158;25;44077;-76
2024/04/14 14:12:36;;;;;;;;;3.00;1.25;;;;;;;;5500974;25;43869;-75
2024/04/14 14:15:02;;;;;;;;;3.00;3.00;;;;;;;;5494974;25;44180;-76
2024/04/14 14:17:27;;;;;;;;;2.00;2.00;;;;;;;;5497130;25;44052;-76
2024/04/14 14:19:52;;;;;;;;;5.00;3.00;;;;;;;;5498066;25;45485;-76
2024/04/14 14:22:17;;;;;;;;;3.00;3.00;;;;;;;;5468260;25;43916;-75
2024/04/14 14:24:42;;;;;;;;;34.67;26.33;;;;;;;;5482846;25;44050;-75
2024/04/14 14:27:08;;;;;;;;;20.33;17.67;;;;;;;;5473267;25;45687;-76
2024/04/14 14:29:34;;;;;;;;;20.67;12.00;;;;;;;;5486876;25;45618;-76
2024/04/14 14:31:59;;;;;;;;;26.33;25.00;;;;;;;;5509682;25;44038;-76
2024/04/14 14:37:08;;;;;;;;;3.00;2.75;;;;;;;;5526785;25;44336;-76
2024/04/14 14:39:34;;;;;;;;;6.00;3.67;;;;;;;;5508072;25;44227;-75